sensor_id;sensor_type;location;lat;lon;timestamp;temperature;humidity
45715;DHT22;31430;61.646;24.704;2022-07-04T00:00:19;10.50;99.90
45715;DHT22;31430;61.646;24.704;2022-07-04T00:02:46;10.50;99.90
45715;DHT22;31430;61.646;24.704;2022-07-04T00:05:13;10.50;99.90
45715;DHT22;31430;61.646;24.704;2022-07-04T00:07:40;10.40;99.90
45715;DHT22;31430;61.646;24.704;2022-07-04T00:10:08;10.40;99.90
45715;DHT22;31430;61.646;24.704;2022-07-04T00:12:34;10.40;99.90
45715;DHT22;31430;61.646;24.704;2022-07-04T00:15:01;10.20;99.90
45715;DHT22;31430;61.646;24.704;2022-07-04T00:17:27;10.20;99.90
45715;DHT22;31430;61.646;24.704;2022-07-04T00:19:53;10.20;99.90
45715;DHT22;31430;61.646;24.704;2022-07-04T00:22:18;10.20;99.90
45715;DHT22;31430;61.646;24.704;2022-07-04T00:24:44;10.10;99.90
45715;DHT22;31430;61.646;24.704;2022-07-04T00:27:10;10.20;99.90
45715;DHT22;31430;61.646;24.704;2022-07-04T00:29:36;10.10;99.90
45715;DHT22;31430;61.646;24.704;2022-07-04T00:32:02;10.00;99.90
45715;DHT22;31430;61.646;24.704;2022-07-04T00:34:28;10.10;99.90
45715;DHT22;31430;61.646;24.704;2022-07-04T00:36:53;10.00;99.90
45715;DHT22;31430;61.646;24.704;2022-07-04T00:39:19;10.00;99.90
45715;DHT22;31430;61.646;24.704;2022-07-04T00:41:46;10.00;99.90
45715;DHT22;31430;61.646;24.704;2022-07-04T00:44:12;10.00;99.90
45715;DHT22;31430;61.646;24.704;2022-07-04T00:46:38;10.00;99.90
45715;DHT22;31430;61.646;24.704;2022-07-04T00:49:05;10.00;99.90
45715;DHT22;31430;61.646;24.704;2022-07-04T00:51:31;10.00;99.90
45715;DHT22;31430;61.646;24.704;2022-07-04T00:53:56;10.00;99.90
45715;DHT22;31430;61.646;24.704;2022-07-04T00:56:23;10.00;99.90
45715;DHT22;31430;61.646;24.704;2022-07-04T00:58:50;10.00;99.90
45715;DHT22;31430;61.646;24.704;2022-07-04T01:01:17;10.00;99.90
45715;DHT22;31430;61.646;24.704;2022-07-04T01:03:43;10.00;99.90
45715;DHT22;31430;61.646;24.704;2022-07-04T01:06:09;10.00;99.90
45715;DHT22;31430;61.646;24.704;2022-07-04T01:08:40;10.00;99.90
45715;DHT22;31430;61.646;24.704;2022-07-04T01:11:06;10.00;99.90
45715;DHT22;31430;61.646;24.704;2022-07-04T01:13:31;9.90;99.90
45715;DHT22;31430;61.646;24.704;2022-07-04T01:15:57;10.00;99.90
45715;DHT22;31430;61.646;24.704;2022-07-04T01:18:23;10.00;99.90
45715;DHT22;31430;61.646;24.704;2022-07-04T01:20:49;10.00;99.90
45715;DHT22;31430;61.646;24.704;2022-07-04T01:23:15;10.00;99.90
45715;DHT22;31430;61.646;24.704;2022-07-04T01:25:41;10.00;99.90
45715;DHT22;31430;61.646;24.704;2022-07-04T01:28:07;10.10;99.90
45715;DHT22;31430;61.646;24.704;2022-07-04T01:30:33;10.10;99.90
45715;DHT22;31430;61.646;24.704;2022-07-04T01:32:59;10.10;99.90
45715;DHT22;31430;61.646;24.704;2022-07-04T01:35:25;10.10;99.90
45715;DHT22;31430;61.646;24.704;2022-07-04T01:37:51;10.10;99.90
45715;DHT22;31430;61.646;24.704;2022-07-04T01:40:17;10.20;99.90
45715;DHT22;31430;61.646;24.704;2022-07-04T01:42:43;10.50;99.90
45715;DHT22;31430;61.646;24.704;2022-07-04T01:45:09;11.40;99.90
45715;DHT22;31430;61.646;24.704;2022-07-04T01:47:36;12.20;99.90
45715;DHT22;31430;61.646;24.704;2022-07-04T01:50:04;12.30;99.90
45715;DHT22;31430;61.646;24.704;2022-07-04T01:52:30;12.10;99.90
45715;DHT22;31430;61.646;24.704;2022-07-04T01:54:55;11.90;99.90
45715;DHT22;31430;61.646;24.704;2022-07-04T01:57:21;11.70;99.90
45715;DHT22;31430;61.646;24.704;2022-07-04T01:59:47;11.50;99.90
45715;DHT22;31430;61.646;24.704;2022-07-04T02:02:31;11.80;99.90
45715;DHT22;31430;61.646;24.704;2022-07-04T02:04:57;12.70;99.90
45715;DHT22;31430;61.646;24.704;2022-07-04T02:07:22;13.30;99.90
45715;DHT22;31430;61.646;24.704;2022-07-04T02:09:48;13.60;99.90
45715;DHT22;31430;61.646;24.704;2022-07-04T02:12:14;13.90;99.90
45715;DHT22;31430;61.646;24.704;2022-07-04T02:14:58;14.30;99.90
45715;DHT22;31430;61.646;24.704;2022-07-04T02:17:24;14.80;99.90
45715;DHT22;31430;61.646;24.704;2022-07-04T02:19:50;15.40;99.20
45715;DHT22;31430;61.646;24.704;2022-07-04T02:22:15;15.50;98.60
45715;DHT22;31430;61.646;24.704;2022-07-04T02:24:41;15.10;99.50
45715;DHT22;31430;61.646;24.704;2022-07-04T02:27:07;15.00;99.90
45715;DHT22;31430;61.646;24.704;2022-07-04T02:29:34;15.40;99.50
45715;DHT22;31430;61.646;24.704;2022-07-04T02:32:00;15.40;98.90
45715;DHT22;31430;61.646;24.704;2022-07-04T02:34:26;15.30;99.30
45715;DHT22;31430;61.646;24.704;2022-07-04T02:36:51;15.10;99.90
45715;DHT22;31430;61.646;24.704;2022-07-04T02:39:17;15.00;99.90
45715;DHT22;31430;61.646;24.704;2022-07-04T02:41:43;14.90;99.90
45715;DHT22;31430;61.646;24.704;2022-07-04T02:44:09;14.70;99.90
45715;DHT22;31430;61.646;24.704;2022-07-04T02:46:35;14.70;99.90
45715;DHT22;31430;61.646;24.704;2022-07-04T02:49:01;14.80;99.90
45715;DHT22;31430;61.646;24.704;2022-07-04T02:51:27;15.00;99.90
45715;DHT22;31430;61.646;24.704;2022-07-04T02:53:52;15.10;99.90
45715;DHT22;31430;61.646;24.704;2022-07-04T02:56:18;14.80;99.90
45715;DHT22;31430;61.646;24.704;2022-07-04T02:58:44;14.10;99.90
45715;DHT22;31430;61.646;24.704;2022-07-04T03:01:09;13.80;99.90
45715;DHT22;31430;61.646;24.704;2022-07-04T03:03:38;14.20;99.90
45715;DHT22;31430;61.646;24.704;2022-07-04T03:06:06;14.80;99.90
45715;DHT22;31430;61.646;24.704;2022-07-04T03:08:32;15.10;99.90
45715;DHT22;31430;61.646;24.704;2022-07-04T03:10:57;15.20;99.90
45715;DHT22;31430;61.646;24.704;2022-07-04T03:13:23;15.30;99.90
45715;DHT22;31430;61.646;24.704;2022-07-04T03:15:50;15.40;99.90
45715;DHT22;31430;61.646;24.704;2022-07-04T03:18:16;15.70;99.90
45715;DHT22;31430;61.646;24.704;2022-07-04T03:20:41;15.90;99.90
45715;DHT22;31430;61.646;24.704;2022-07-04T03:23:07;16.10;99.90
45715;DHT22;31430;61.646;24.704;2022-07-04T03:25:33;16.10;99.90
45715;DHT22;31430;61.646;24.704;2022-07-04T03:27:59;16.20;99.90
45715;DHT22;31430;61.646;24.704;2022-07-04T03:30:24;16.40;99.90
45715;DHT22;31430;61.646;24.704;2022-07-04T03:32:50;16.60;99.90
45715;DHT22;31430;61.646;24.704;2022-07-04T03:35:16;16.70;99.90
45715;DHT22;31430;61.646;24.704;2022-07-04T03:37:43;16.70;99.90
45715;DHT22;31430;61.646;24.704;2022-07-04T03:40:10;16.80;99.90
45715;DHT22;31430;61.646;24.704;2022-07-04T03:42:36;17.00;99.90
45715;DHT22;31430;61.646;24.704;2022-07-04T03:45:02;17.20;99.90
45715;DHT22;31430;61.646;24.704;2022-07-04T03:47:27;17.40;99.90
45715;DHT22;31430;61.646;24.704;2022-07-04T03:49:53;17.50;99.90
45715;DHT22;31430;61.646;24.704;2022-07-04T03:52:19;17.70;99.90
45715;DHT22;31430;61.646;24.704;2022-07-04T03:54:44;17.60;99.90
45715;DHT22;31430;61.646;24.704;2022-07-04T03:57:10;17.80;99.90
45715;DHT22;31430;61.646;24.704;2022-07-04T03:59:36;18.00;99.90
45715;DHT22;31430;61.646;24.704;2022-07-04T04:02:01;18.40;99.90
45715;DHT22;31430;61.646;24.704;2022-07-04T04:04:27;18.60;99.90
45715;DHT22;31430;61.646;24.704;2022-07-04T04:07:11;18.70;99.90
45715;DHT22;31430;61.646;24.704;2022-07-04T04:09:37;18.80;99.90
45715;DHT22;31430;61.646;24.704;2022-07-04T04:12:03;18.80;99.90
45715;DHT22;31430;61.646;24.704;2022-07-04T04:14:29;19.00;99.90
45715;DHT22;31430;61.646;24.704;2022-07-04T04:16:54;19.10;99.90
45715;DHT22;31430;61.646;24.704;2022-07-04T04:19:20;19.00;99.90
45715;DHT22;31430;61.646;24.704;2022-07-04T04:21:46;19.10;99.90
45715;DHT22;31430;61.646;24.704;2022-07-04T04:24:12;19.10;99.90
45715;DHT22;31430;61.646;24.704;2022-07-04T04:26:37;19.30;99.90
45715;DHT22;31430;61.646;24.704;2022-07-04T04:29:03;19.30;99.90
45715;DHT22;31430;61.646;24.704;2022-07-04T04:31:29;19.40;99.90
45715;DHT22;31430;61.646;24.704;2022-07-04T04:33:57;19.50;99.90
45715;DHT22;31430;61.646;24.704;2022-07-04T04:36:22;19.50;99.90
45715;DHT22;31430;61.646;24.704;2022-07-04T04:38:48;19.70;99.90
45715;DHT22;31430;61.646;24.704;2022-07-04T04:41:14;19.80;99.90
45715;DHT22;31430;61.646;24.704;2022-07-04T04:43:42;19.80;99.50
45715;DHT22;31430;61.646;24.704;2022-07-04T04:46:07;20.10;99.40
45715;DHT22;31430;61.646;24.704;2022-07-04T04:48:33;20.10;99.50
45715;DHT22;31430;61.646;24.704;2022-07-04T04:50:59;20.20;99.90
45715;DHT22;31430;61.646;24.704;2022-07-04T04:53:24;20.30;99.10
45715;DHT22;31430;61.646;24.704;2022-07-04T04:55:51;20.40;95.50
45715;DHT22;31430;61.646;24.704;2022-07-04T04:58:17;20.30;96.10
45715;DHT22;31430;61.646;24.704;2022-07-04T05:00:43;20.40;95.00
45715;DHT22;31430;61.646;24.704;2022-07-04T05:03:08;20.40;94.20
45715;DHT22;31430;61.646;24.704;2022-07-04T05:05:34;20.30;95.60
45715;DHT22;31430;61.646;24.704;2022-07-04T05:08:00;20.50;95.20
45715;DHT22;31430;61.646;24.704;2022-07-04T05:10:26;20.60;94.60
45715;DHT22;31430;61.646;24.704;2022-07-04T05:12:52;20.40;93.60
45715;DHT22;31430;61.646;24.704;2022-07-04T05:15:18;20.40;93.80
45715;DHT22;31430;61.646;24.704;2022-07-04T05:17:43;20.80;92.90
45715;DHT22;31430;61.646;24.704;2022-07-04T05:20:09;21.00;91.80
45715;DHT22;31430;61.646;24.704;2022-07-04T05:22:35;20.50;93.10
45715;DHT22;31430;61.646;24.704;2022-07-04T05:25:01;20.50;91.50
45715;DHT22;31430;61.646;24.704;2022-07-04T05:27:27;20.10;92.20
45715;DHT22;31430;61.646;24.704;2022-07-04T05:29:53;20.30;92.60
45715;DHT22;31430;61.646;24.704;2022-07-04T05:32:18;20.50;92.40
45715;DHT22;31430;61.646;24.704;2022-07-04T05:34:44;20.80;90.80
45715;DHT22;31430;61.646;24.704;2022-07-04T05:37:10;20.90;89.60
45715;DHT22;31430;61.646;24.704;2022-07-04T05:39:35;20.90;89.20
45715;DHT22;31430;61.646;24.704;2022-07-04T05:42:01;20.70;86.50
45715;DHT22;31430;61.646;24.704;2022-07-04T05:44:27;21.00;86.70
45715;DHT22;31430;61.646;24.704;2022-07-04T05:47:05;20.90;86.20
45715;DHT22;31430;61.646;24.704;2022-07-04T05:49:31;20.60;84.10
45715;DHT22;31430;61.646;24.704;2022-07-04T05:51:56;20.70;85.90
45715;DHT22;31430;61.646;24.704;2022-07-04T05:54:22;20.90;87.30
45715;DHT22;31430;61.646;24.704;2022-07-04T05:56:48;20.90;85.30
45715;DHT22;31430;61.646;24.704;2022-07-04T05:59:13;20.90;83.60
45715;DHT22;31430;61.646;24.704;2022-07-04T06:01:39;20.90;81.60
45715;DHT22;31430;61.646;24.704;2022-07-04T06:04:05;20.90;80.90
45715;DHT22;31430;61.646;24.704;2022-07-04T06:06:31;20.90;80.50
45715;DHT22;31430;61.646;24.704;2022-07-04T06:08:58;21.00;82.50
45715;DHT22;31430;61.646;24.704;2022-07-04T06:11:23;21.10;82.50
45715;DHT22;31430;61.646;24.704;2022-07-04T06:13:50;21.10;83.90
45715;DHT22;31430;61.646;24.704;2022-07-04T06:16:15;21.10;83.60
45715;DHT22;31430;61.646;24.704;2022-07-04T06:18:42;21.20;81.80
45715;DHT22;31430;61.646;24.704;2022-07-04T06:21:08;21.20;83.80
45715;DHT22;31430;61.646;24.704;2022-07-04T06:23:34;21.30;81.80
45715;DHT22;31430;61.646;24.704;2022-07-04T06:26:00;21.10;83.80
45715;DHT22;31430;61.646;24.704;2022-07-04T06:28:26;21.20;82.00
45715;DHT22;31430;61.646;24.704;2022-07-04T06:30:52;21.40;81.20
45715;DHT22;31430;61.646;24.704;2022-07-04T06:33:17;21.10;82.50
45715;DHT22;31430;61.646;24.704;2022-07-04T06:35:44;21.40;77.30
45715;DHT22;31430;61.646;24.704;2022-07-04T06:38:29;21.40;78.80
45715;DHT22;31430;61.646;24.704;2022-07-04T06:40:57;21.20;80.60
45715;DHT22;31430;61.646;24.704;2022-07-04T06:43:24;21.30;84.00
45715;DHT22;31430;61.646;24.704;2022-07-04T06:45:50;21.40;81.10
45715;DHT22;31430;61.646;24.704;2022-07-04T06:48:16;21.60;77.30
45715;DHT22;31430;61.646;24.704;2022-07-04T06:50:42;21.50;80.30
45715;DHT22;31430;61.646;24.704;2022-07-04T06:53:08;21.60;78.20
45715;DHT22;31430;61.646;24.704;2022-07-04T06:55:39;21.90;79.10
45715;DHT22;31430;61.646;24.704;2022-07-04T06:58:05;22.00;79.10
45715;DHT22;31430;61.646;24.704;2022-07-04T07:00:32;22.00;76.70
45715;DHT22;31430;61.646;24.704;2022-07-04T07:02:58;22.10;74.50
45715;DHT22;31430;61.646;24.704;2022-07-04T07:05:25;22.00;75.20
45715;DHT22;31430;61.646;24.704;2022-07-04T07:07:51;22.10;75.70
45715;DHT22;31430;61.646;24.704;2022-07-04T07:10:17;22.20;75.40
45715;DHT22;31430;61.646;24.704;2022-07-04T07:12:42;22.20;73.90
45715;DHT22;31430;61.646;24.704;2022-07-04T07:15:08;22.20;74.30
45715;DHT22;31430;61.646;24.704;2022-07-04T07:17:34;22.10;75.10
45715;DHT22;31430;61.646;24.704;2022-07-04T07:20:00;22.00;73.40
45715;DHT22;31430;61.646;24.704;2022-07-04T07:22:26;22.00;76.50
45715;DHT22;31430;61.646;24.704;2022-07-04T07:24:52;22.00;73.60
45715;DHT22;31430;61.646;24.704;2022-07-04T07:27:17;21.90;75.50
45715;DHT22;31430;61.646;24.704;2022-07-04T07:29:46;22.00;76.30
45715;DHT22;31430;61.646;24.704;2022-07-04T07:32:12;22.00;71.90
45715;DHT22;31430;61.646;24.704;2022-07-04T07:34:38;22.10;77.80
45715;DHT22;31430;61.646;24.704;2022-07-04T07:37:03;22.30;75.00
45715;DHT22;31430;61.646;24.704;2022-07-04T07:39:29;22.10;74.90
45715;DHT22;31430;61.646;24.704;2022-07-04T07:41:55;22.10;73.30
45715;DHT22;31430;61.646;24.704;2022-07-04T07:44:20;22.10;74.90
45715;DHT22;31430;61.646;24.704;2022-07-04T07:46:46;22.20;77.90
45715;DHT22;31430;61.646;24.704;2022-07-04T07:49:12;22.20;73.50
45715;DHT22;31430;61.646;24.704;2022-07-04T07:51:38;22.20;74.40
45715;DHT22;31430;61.646;24.704;2022-07-04T07:54:03;22.80;75.70
45715;DHT22;31430;61.646;24.704;2022-07-04T07:56:29;22.90;72.60
45715;DHT22;31430;61.646;24.704;2022-07-04T07:58:55;22.10;75.30
45715;DHT22;31430;61.646;24.704;2022-07-04T08:01:21;22.40;72.20
45715;DHT22;31430;61.646;24.704;2022-07-04T08:03:47;22.40;68.80
45715;DHT22;31430;61.646;24.704;2022-07-04T08:06:32;22.80;65.40
45715;DHT22;31430;61.646;24.704;2022-07-04T08:08:58;23.10;73.30
45715;DHT22;31430;61.646;24.704;2022-07-04T08:11:24;23.40;69.20
45715;DHT22;31430;61.646;24.704;2022-07-04T08:13:50;23.60;69.70
45715;DHT22;31430;61.646;24.704;2022-07-04T08:16:16;23.70;69.00
45715;DHT22;31430;61.646;24.704;2022-07-04T08:18:42;23.90;65.80
45715;DHT22;31430;61.646;24.704;2022-07-04T08:21:07;23.90;67.20
45715;DHT22;31430;61.646;24.704;2022-07-04T08:23:33;24.00;67.80
45715;DHT22;31430;61.646;24.704;2022-07-04T08:26:00;23.90;67.00
45715;DHT22;31430;61.646;24.704;2022-07-04T08:28:27;23.90;67.40
45715;DHT22;31430;61.646;24.704;2022-07-04T08:30:53;24.10;65.10
45715;DHT22;31430;61.646;24.704;2022-07-04T08:33:19;23.90;62.70
45715;DHT22;31430;61.646;24.704;2022-07-04T08:35:44;24.00;61.00
45715;DHT22;31430;61.646;24.704;2022-07-04T08:38:10;24.10;61.60
45715;DHT22;31430;61.646;24.704;2022-07-04T08:40:36;23.70;62.60
45715;DHT22;31430;61.646;24.704;2022-07-04T08:43:03;23.60;67.30
45715;DHT22;31430;61.646;24.704;2022-07-04T08:45:31;23.60;69.10
45715;DHT22;31430;61.646;24.704;2022-07-04T08:48:05;23.90;65.90
45715;DHT22;31430;61.646;24.704;2022-07-04T08:50:33;23.60;59.90
45715;DHT22;31430;61.646;24.704;2022-07-04T08:53:07;23.70;64.20
45715;DHT22;31430;61.646;24.704;2022-07-04T08:55:35;24.00;59.50
45715;DHT22;31430;61.646;24.704;2022-07-04T08:58:19;24.00;57.00
45715;DHT22;31430;61.646;24.704;2022-07-04T09:01:21;23.40;60.40
45715;DHT22;31430;61.646;24.704;2022-07-04T09:03:50;23.80;60.20
45715;DHT22;31430;61.646;24.704;2022-07-04T09:06:15;23.90;60.10
45715;DHT22;31430;61.646;24.704;2022-07-04T09:08:42;24.10;62.70
45715;DHT22;31430;61.646;24.704;2022-07-04T09:11:07;24.50;61.70
45715;DHT22;31430;61.646;24.704;2022-07-04T09:13:33;24.70;64.80
45715;DHT22;31430;61.646;24.704;2022-07-04T09:16:00;24.80;60.60
45715;DHT22;31430;61.646;24.704;2022-07-04T09:18:35;25.00;63.90
45715;DHT22;31430;61.646;24.704;2022-07-04T09:21:09;24.90;61.40
45715;DHT22;31430;61.646;24.704;2022-07-04T09:23:40;24.60;59.90
45715;DHT22;31430;61.646;24.704;2022-07-04T09:28:35;25.40;60.20
45715;DHT22;31430;61.646;24.704;2022-07-04T09:31:01;25.50;60.50
45715;DHT22;31430;61.646;24.704;2022-07-04T09:33:47;25.90;57.50
45715;DHT22;31430;61.646;24.704;2022-07-04T09:36:13;26.10;55.90
45715;DHT22;31430;61.646;24.704;2022-07-04T09:38:39;26.30;54.80
45715;DHT22;31430;61.646;24.704;2022-07-04T09:41:05;26.40;53.50
45715;DHT22;31430;61.646;24.704;2022-07-04T09:44:06;26.50;53.90
45715;DHT22;31430;61.646;24.704;2022-07-04T09:46:32;26.20;51.20
45715;DHT22;31430;61.646;24.704;2022-07-04T09:48:59;26.30;51.40
45715;DHT22;31430;61.646;24.704;2022-07-04T09:51:44;26.10;50.70
45715;DHT22;31430;61.646;24.704;2022-07-04T09:54:27;25.70;52.90
45715;DHT22;31430;61.646;24.704;2022-07-04T09:57:02;25.80;53.80
45715;DHT22;31430;61.646;24.704;2022-07-04T09:59:29;26.50;55.10
45715;DHT22;31430;61.646;24.704;2022-07-04T10:02:12;26.30;53.50
45715;DHT22;31430;61.646;24.704;2022-07-04T10:04:46;26.30;54.60
45715;DHT22;31430;61.646;24.704;2022-07-04T10:07:34;26.10;54.90
45715;DHT22;31430;61.646;24.704;2022-07-04T10:10:24;26.20;52.60
45715;DHT22;31430;61.646;24.704;2022-07-04T10:12:51;26.40;54.70
45715;DHT22;31430;61.646;24.704;2022-07-04T10:15:19;26.50;55.40
45715;DHT22;31430;61.646;24.704;2022-07-04T10:17:45;26.10;56.20
45715;DHT22;31430;61.646;24.704;2022-07-04T10:20:12;26.40;48.70
45715;DHT22;31430;61.646;24.704;2022-07-04T10:22:38;26.10;54.70
45715;DHT22;31430;61.646;24.704;2022-07-04T10:25:05;26.30;51.60
45715;DHT22;31430;61.646;24.704;2022-07-04T10:27:31;26.50;53.30
45715;DHT22;31430;61.646;24.704;2022-07-04T10:30:04;26.20;56.00
45715;DHT22;31430;61.646;24.704;2022-07-04T10:32:30;25.80;56.10
45715;DHT22;31430;61.646;24.704;2022-07-04T10:34:56;26.10;56.50
45715;DHT22;31430;61.646;24.704;2022-07-04T10:37:22;26.00;51.30
45715;DHT22;31430;61.646;24.704;2022-07-04T10:39:48;25.60;53.80
45715;DHT22;31430;61.646;24.704;2022-07-04T10:42:26;26.00;55.60
45715;DHT22;31430;61.646;24.704;2022-07-04T10:45:00;26.50;55.40
45715;DHT22;31430;61.646;24.704;2022-07-04T10:47:26;26.30;54.60
45715;DHT22;31430;61.646;24.704;2022-07-04T10:49:56;26.40;54.40
45715;DHT22;31430;61.646;24.704;2022-07-04T10:52:22;26.20;54.60
45715;DHT22;31430;61.646;24.704;2022-07-04T10:54:47;26.70;53.80
45715;DHT22;31430;61.646;24.704;2022-07-04T11:00:21;26.60;53.90
45715;DHT22;31430;61.646;24.704;2022-07-04T11:04:58;26.50;54.00
45715;DHT22;31430;61.646;24.704;2022-07-04T11:20:25;26.50;52.60
45715;DHT22;31430;61.646;24.704;2022-07-04T11:22:51;26.50;54.40
45715;DHT22;31430;61.646;24.704;2022-07-04T11:25:17;26.90;52.70
45715;DHT22;31430;61.646;24.704;2022-07-04T11:27:42;26.80;51.40
45715;DHT22;31430;61.646;24.704;2022-07-04T11:30:09;26.90;51.90
45715;DHT22;31430;61.646;24.704;2022-07-04T11:32:38;26.70;52.00
45715;DHT22;31430;61.646;24.704;2022-07-04T11:35:05;26.80;51.30
45715;DHT22;31430;61.646;24.704;2022-07-04T11:37:31;26.80;53.20
45715;DHT22;31430;61.646;24.704;2022-07-04T11:39:57;26.80;51.00
45715;DHT22;31430;61.646;24.704;2022-07-04T11:43:08;26.30;53.70
45715;DHT22;31430;61.646;24.704;2022-07-04T11:45:53;26.80;53.50
45715;DHT22;31430;61.646;24.704;2022-07-04T11:48:27;26.80;51.40
45715;DHT22;31430;61.646;24.704;2022-07-04T11:50:53;26.50;54.10
45715;DHT22;31430;61.646;24.704;2022-07-04T11:53:19;25.90;50.60
45715;DHT22;31430;61.646;24.704;2022-07-04T11:55:56;26.20;53.90
45715;DHT22;31430;61.646;24.704;2022-07-04T11:58:22;26.30;51.30
45715;DHT22;31430;61.646;24.704;2022-07-04T12:00:48;26.30;54.90
45715;DHT22;31430;61.646;24.704;2022-07-04T12:03:14;26.50;53.30
45715;DHT22;31430;61.646;24.704;2022-07-04T12:05:40;26.70;50.70
45715;DHT22;31430;61.646;24.704;2022-07-04T12:08:07;26.40;54.20
45715;DHT22;31430;61.646;24.704;2022-07-04T12:10:33;25.90;54.60
45715;DHT22;31430;61.646;24.704;2022-07-04T12:12:59;26.40;49.80
45715;DHT22;31430;61.646;24.704;2022-07-04T12:15:43;25.20;52.30
45715;DHT22;31430;61.646;24.704;2022-07-04T12:18:20;25.00;54.70
45715;DHT22;31430;61.646;24.704;2022-07-04T12:20:51;25.00;54.80
45715;DHT22;31430;61.646;24.704;2022-07-04T12:23:19;25.50;56.00
45715;DHT22;31430;61.646;24.704;2022-07-04T12:25:47;25.50;53.60
45715;DHT22;31430;61.646;24.704;2022-07-04T12:28:14;25.60;55.00
45715;DHT22;31430;61.646;24.704;2022-07-04T12:30:50;26.10;54.70
45715;DHT22;31430;61.646;24.704;2022-07-04T12:33:19;26.00;50.80
45715;DHT22;31430;61.646;24.704;2022-07-04T12:35:47;25.60;54.10
45715;DHT22;31430;61.646;24.704;2022-07-04T12:43:43;25.00;55.70
45715;DHT22;31430;61.646;24.704;2022-07-04T12:46:32;25.30;55.80
45715;DHT22;31430;61.646;24.704;2022-07-04T12:49:00;25.60;54.70
45715;DHT22;31430;61.646;24.704;2022-07-04T12:51:31;26.60;51.00
45715;DHT22;31430;61.646;24.704;2022-07-04T12:53:59;26.50;49.00
45715;DHT22;31430;61.646;24.704;2022-07-04T12:56:39;26.10;52.20
45715;DHT22;31430;61.646;24.704;2022-07-04T13:01:33;26.80;53.80
45715;DHT22;31430;61.646;24.704;2022-07-04T13:04:00;27.30;54.20
45715;DHT22;31430;61.646;24.704;2022-07-04T13:06:26;27.50;51.10
45715;DHT22;31430;61.646;24.704;2022-07-04T13:08:52;27.90;50.60
45715;DHT22;31430;61.646;24.704;2022-07-04T13:11:18;28.40;50.00
45715;DHT22;31430;61.646;24.704;2022-07-04T13:14:02;28.50;47.20
45715;DHT22;31430;61.646;24.704;2022-07-04T13:16:28;28.30;49.20
45715;DHT22;31430;61.646;24.704;2022-07-04T13:18:53;28.20;51.80
45715;DHT22;31430;61.646;24.704;2022-07-04T13:21:19;28.50;48.90
45715;DHT22;31430;61.646;24.704;2022-07-04T13:23:45;28.50;51.60
45715;DHT22;31430;61.646;24.704;2022-07-04T13:26:11;27.60;48.30
45715;DHT22;31430;61.646;24.704;2022-07-04T13:28:36;27.80;50.90
45715;DHT22;31430;61.646;24.704;2022-07-04T13:31:03;28.60;49.70
45715;DHT22;31430;61.646;24.704;2022-07-04T13:33:29;28.70;47.60
45715;DHT22;31430;61.646;24.704;2022-07-04T13:35:54;28.60;47.00
45715;DHT22;31430;61.646;24.704;2022-07-04T13:38:20;27.00;50.60
45715;DHT22;31430;61.646;24.704;2022-07-04T13:40:45;27.90;50.20
45715;DHT22;31430;61.646;24.704;2022-07-04T13:43:12;28.10;49.20
45715;DHT22;31430;61.646;24.704;2022-07-04T13:45:39;27.60;50.40
45715;DHT22;31430;61.646;24.704;2022-07-04T13:48:06;28.60;47.60
45715;DHT22;31430;61.646;24.704;2022-07-04T13:50:33;26.90;47.50
45715;DHT22;31430;61.646;24.704;2022-07-04T13:53:01;26.90;49.70
45715;DHT22;31430;61.646;24.704;2022-07-04T13:55:26;27.50;52.30
45715;DHT22;31430;61.646;24.704;2022-07-04T13:57:52;28.30;52.00
45715;DHT22;31430;61.646;24.704;2022-07-04T14:00:18;28.10;49.20
45715;DHT22;31430;61.646;24.704;2022-07-04T14:02:43;28.30;45.30
45715;DHT22;31430;61.646;24.704;2022-07-04T14:05:09;28.10;48.10
45715;DHT22;31430;61.646;24.704;2022-07-04T14:07:36;27.80;46.30
45715;DHT22;31430;61.646;24.704;2022-07-04T14:10:02;27.90;47.70
45715;DHT22;31430;61.646;24.704;2022-07-04T14:12:27;28.10;46.60
45715;DHT22;31430;61.646;24.704;2022-07-04T14:14:53;28.00;45.70
45715;DHT22;31430;61.646;24.704;2022-07-04T14:17:19;27.60;50.60
45715;DHT22;31430;61.646;24.704;2022-07-04T14:19:44;27.20;49.70
45715;DHT22;31430;61.646;24.704;2022-07-04T14:22:10;27.40;49.00
45715;DHT22;31430;61.646;24.704;2022-07-04T14:24:35;27.70;48.80
45715;DHT22;31430;61.646;24.704;2022-07-04T14:27:01;27.60;50.60
45715;DHT22;31430;61.646;24.704;2022-07-04T14:29:27;27.70;48.60
45715;DHT22;31430;61.646;24.704;2022-07-04T14:31:53;27.50;46.70
45715;DHT22;31430;61.646;24.704;2022-07-04T14:34:19;27.10;47.70
45715;DHT22;31430;61.646;24.704;2022-07-04T14:36:45;26.70;49.50
45715;DHT22;31430;61.646;24.704;2022-07-04T14:39:10;27.30;50.60
45715;DHT22;31430;61.646;24.704;2022-07-04T14:41:36;27.80;49.30
45715;DHT22;31430;61.646;24.704;2022-07-04T14:44:02;27.90;47.90
45715;DHT22;31430;61.646;24.704;2022-07-04T14:46:28;28.30;47.70
45715;DHT22;31430;61.646;24.704;2022-07-04T14:48:55;28.50;46.70
45715;DHT22;31430;61.646;24.704;2022-07-04T14:51:21;28.30;47.50
45715;DHT22;31430;61.646;24.704;2022-07-04T14:53:46;28.20;49.50
45715;DHT22;31430;61.646;24.704;2022-07-04T14:56:12;28.10;49.40
45715;DHT22;31430;61.646;24.704;2022-07-04T14:58:37;28.00;49.10
45715;DHT22;31430;61.646;24.704;2022-07-04T15:01:03;28.20;47.40
45715;DHT22;31430;61.646;24.704;2022-07-04T15:03:29;28.10;48.90
45715;DHT22;31430;61.646;24.704;2022-07-04T15:05:54;28.20;48.70
45715;DHT22;31430;61.646;24.704;2022-07-04T15:08:20;28.60;47.90
45715;DHT22;31430;61.646;24.704;2022-07-04T15:10:46;28.70;47.60
45715;DHT22;31430;61.646;24.704;2022-07-04T15:13:12;28.40;47.10
45715;DHT22;31430;61.646;24.704;2022-07-04T15:15:39;28.20;49.00
45715;DHT22;31430;61.646;24.704;2022-07-04T15:18:04;28.30;47.30
45715;DHT22;31430;61.646;24.704;2022-07-04T15:20:30;27.90;51.30
45715;DHT22;31430;61.646;24.704;2022-07-04T15:23:14;27.80;49.80
45715;DHT22;31430;61.646;24.704;2022-07-04T15:25:58;27.90;51.40
45715;DHT22;31430;61.646;24.704;2022-07-04T15:28:24;27.40;49.10
45715;DHT22;31430;61.646;24.704;2022-07-04T15:30:50;27.40;49.40
45715;DHT22;31430;61.646;24.704;2022-07-04T15:33:15;27.20;48.70
45715;DHT22;31430;61.646;24.704;2022-07-04T15:35:42;27.20;47.50
45715;DHT22;31430;61.646;24.704;2022-07-04T15:38:09;26.80;48.60
45715;DHT22;31430;61.646;24.704;2022-07-04T15:40:35;26.30;50.60
45715;DHT22;31430;61.646;24.704;2022-07-04T15:43:00;26.10;49.20
45715;DHT22;31430;61.646;24.704;2022-07-04T15:45:29;26.00;50.00